KNGU/NGU METAR and TAF weather

Enter ICAO airport designator
Station Type Date Time Source
KNGU METAR 2019/11/18 03:59 UTC NOAA

KNGU 180359Z 36017G23KT 3SM -RA BR OVC004 08/07 A2991 RMK AO2 PK WND 01027/0335 SLP127 P0000 T00830072 $


Station Type Date Time Source
KNGU Decoded METAR 2019/11/18 03:59 UTC NOAA

Norfolk, Naval Air Station, VA, United States (KNGU) 36-56-01N 076-17-45W 8M
Nov 17, 2019 - 10:59 PM EST / 2019.11.18 0359 UTC
Wind: from the N (360 degrees) at 20 MPH (17 KT) gusting to 26 MPH (23 KT):0
Visibility: 3 mile(s):0
Sky conditions: overcast
Weather: light rain; mist
Precipitation last hour: A trace
Temperature: 46.9 F (8.3 C)
Dew Point: 45.0 F (7.2 C)
Relative Humidity: 92%
Pressure (altimeter): 29.91 in. Hg (1012 hPa)
ob: KNGU 180359Z 36017G23KT 3SM -RA BR OVC004 08/07 A2991 RMK AO2 PK WND 01027/0335 SLP127 P0000 T00830072
cycle: 4

Station Type Date Time Source
KNGU TAF 2019/11/18 00:58 UTC NOAA

TAF
AMD KNGU 1800/1823 36018G26KT 9999 VCSH OVC020 530009 QNH2995INS
TEMPO 1800/1804 4800 RA BR OVC005
FM180500 35015G23KT 9999 BKN010 OVC030 500000 QNH2982INS
BECMG 1812/1814 36010KT 9999 BKN010 BKN040 QNH2983INS
FM181600 33008KT 9999 BKN030 BKN250 QNH2973INS
AMD 0056 T05/1811Z T08/1821Z FN00216

Example: see airport list